createdAt,value
2023-05-14T00:00:27.746Z,6.80
2023-05-14T00:01:27.764Z,6.70
2023-05-14T00:02:27.811Z,6.10
2023-05-14T00:03:27.925Z,5.20
2023-05-14T00:04:27.823Z,7.50
2023-05-14T00:05:27.723Z,6.30
2023-05-14T00:06:27.707Z,6.40
2023-05-14T00:07:27.700Z,7.10
2023-05-14T00:08:27.667Z,7.70
2023-05-14T00:09:27.684Z,7.00
2023-05-14T00:10:27.645Z,7.70
2023-05-14T00:11:27.665Z,6.20
2023-05-14T00:12:27.632Z,6.30
2023-05-14T00:13:27.623Z,7.30
2023-05-14T00:14:27.597Z,5.70
2023-05-14T00:15:27.626Z,10.70
2023-05-14T00:16:27.621Z,8.50
2023-05-14T00:17:27.662Z,6.70
2023-05-14T00:18:27.630Z,7.40
2023-05-14T00:19:27.567Z,5.90
2023-05-14T00:20:27.537Z,6.60
2023-05-14T00:21:27.554Z,8.20
2023-05-14T00:22:27.512Z,4.80
2023-05-14T00:23:27.543Z,7.20
2023-05-14T00:24:27.498Z,6.00
2023-05-14T00:25:27.521Z,7.20
2023-05-14T00:26:27.472Z,6.00
2023-05-14T00:27:27.556Z,6.10
2023-05-14T00:28:27.460Z,7.20
2023-05-14T00:29:27.484Z,6.30
2023-05-14T00:30:27.425Z,7.10
2023-05-14T00:31:27.475Z,7.50
2023-05-14T00:32:27.455Z,6.80
2023-05-14T00:33:27.427Z,7.40
2023-05-14T00:34:27.398Z,7.60
2023-05-14T00:35:27.413Z,5.90
2023-05-14T00:36:27.363Z,6.80
2023-05-14T00:37:27.370Z,8.00
2023-05-14T00:38:27.373Z,7.30
2023-05-14T00:39:27.348Z,5.60
2023-05-14T00:40:27.348Z,6.70
2023-05-14T00:41:27.345Z,7.30
2023-05-14T00:42:27.305Z,5.40
2023-05-14T00:43:27.320Z,6.20
2023-05-14T00:44:27.284Z,6.10
2023-05-14T00:45:27.312Z,6.30
2023-05-14T00:46:27.316Z,6.80
2023-05-14T00:47:27.321Z,5.70
2023-05-14T00:48:27.242Z,5.40
2023-05-14T00:49:27.264Z,6.70
2023-05-14T00:50:27.289Z,7.40
2023-05-14T00:51:27.251Z,7.50
2023-05-14T00:52:27.197Z,6.00
2023-05-14T00:53:27.220Z,6.60
2023-05-14T00:54:27.180Z,7.80
2023-05-14T00:55:27.207Z,7.50
2023-05-14T00:56:27.158Z,6.00
2023-05-14T00:57:27.186Z,6.60
2023-05-14T00:58:27.166Z,6.30
2023-05-14T00:59:27.152Z,6.90
2023-05-14T01:00:27.113Z,6.70
2023-05-14T01:01:27.207Z,7.20
2023-05-14T01:02:27.146Z,8.70
2023-05-14T01:03:27.208Z,7.00
2023-05-14T01:04:27.070Z,6.80
2023-05-14T01:05:27.208Z,7.00
2023-05-14T01:06:27.070Z,7.00
2023-05-14T01:07:27.070Z,7.90
2023-05-14T01:08:27.023Z,6.60
2023-05-14T01:09:27.086Z,6.60
2023-05-14T01:10:27.085Z,7.70
2023-05-14T01:11:27.010Z,7.00
2023-05-14T01:12:26.995Z,6.50
2023-05-14T01:13:27.016Z,9.30
2023-05-14T01:14:26.961Z,7.00
2023-05-14T01:15:26.988Z,6.50
2023-05-14T01:16:26.967Z,7.60
2023-05-14T01:17:26.970Z,6.90
2023-05-14T01:18:26.968Z,7.50
2023-05-14T01:19:26.926Z,6.10
2023-05-14T01:20:26.930Z,7.90
2023-05-14T01:21:26.928Z,5.60
2023-05-14T01:22:26.881Z,6.50
2023-05-14T01:23:26.912Z,6.10
2023-05-14T01:24:26.882Z,5.30
2023-05-14T01:25:26.886Z,6.10
2023-05-14T01:26:26.837Z,6.30
2023-05-14T01:27:26.836Z,8.30
2023-05-14T01:28:26.815Z,7.90
2023-05-14T01:29:26.843Z,11.20
2023-05-14T01:30:26.888Z,6.30
2023-05-14T01:31:26.849Z,5.80
2023-05-14T01:32:26.868Z,7.50
2023-05-14T01:33:26.806Z,6.20
2023-05-14T01:34:26.764Z,6.20
2023-05-14T01:35:26.756Z,7.50
2023-05-14T01:36:26.730Z,7.60
2023-05-14T01:37:26.733Z,5.80
2023-05-14T01:38:26.713Z,9.70
2023-05-14T01:39:26.735Z,6.90
2023-05-14T01:40:26.727Z,6.60
2023-05-14T01:41:26.706Z,7.30
2023-05-14T01:42:26.664Z,8.00
2023-05-14T01:43:26.702Z,8.70
2023-05-14T01:44:26.641Z,7.60
2023-05-14T01:45:26.666Z,6.10
2023-05-14T01:46:26.634Z,6.10
2023-05-14T01:47:26.647Z,7.90
2023-05-14T01:48:26.611Z,6.50
2023-05-14T01:49:26.607Z,7.40
2023-05-14T01:50:26.581Z,6.70
2023-05-14T01:51:26.608Z,6.40
2023-05-14T01:52:26.557Z,6.10
2023-05-14T01:53:26.558Z,6.10
2023-05-14T01:54:26.534Z,7.50
2023-05-14T01:55:26.560Z,6.00
2023-05-14T01:56:26.522Z,6.90
2023-05-14T01:57:26.545Z,7.20
2023-05-14T01:58:26.496Z,6.70
2023-05-14T01:59:26.499Z,6.70
2023-05-14T02:00:26.663Z,7.40
2023-05-14T02:01:26.567Z,6.80
2023-05-14T02:02:26.528Z,8.00
2023-05-14T02:03:26.479Z,7.20
2023-05-14T02:04:26.558Z,8.10
2023-05-14T02:05:26.449Z,7.30
2023-05-14T02:06:26.401Z,9.40
2023-05-14T02:07:26.441Z,8.30
2023-05-14T02:08:26.387Z,6.10
2023-05-14T02:09:26.393Z,7.40
2023-05-14T02:10:26.451Z,7.10
2023-05-14T02:11:26.373Z,7.20
2023-05-14T02:12:26.355Z,6.40
2023-05-14T02:13:26.393Z,6.40
2023-05-14T02:14:26.323Z,6.80
2023-05-14T02:15:26.350Z,6.90
2023-05-14T02:16:26.370Z,6.20
2023-05-14T02:17:26.426Z,11.30
2023-05-14T02:18:26.315Z,12.60
2023-05-14T02:19:26.297Z,7.30
2023-05-14T02:20:26.344Z,7.50
2023-05-14T02:21:26.268Z,8.20
2023-05-14T02:22:26.252Z,6.70
2023-05-14T02:23:37.875Z,6.60
2023-05-14T02:24:26.219Z,6.80
2023-05-14T02:25:26.224Z,6.50
2023-05-14T02:26:26.202Z,6.50
2023-05-14T02:27:26.202Z,7.20
2023-05-14T02:28:26.177Z,8.00
2023-05-14T02:29:26.206Z,6.70
2023-05-14T02:30:26.177Z,7.30
2023-05-14T02:31:26.191Z,5.90
2023-05-14T02:32:26.211Z,7.20
2023-05-14T02:33:26.199Z,7.00
2023-05-14T02:34:26.145Z,8.70
2023-05-14T02:35:26.138Z,8.60
2023-05-14T02:36:26.099Z,7.30
2023-05-14T02:37:26.116Z,6.10
2023-05-14T02:38:26.074Z,7.00
2023-05-14T02:39:26.095Z,8.90
2023-05-14T02:40:26.287Z,6.70
2023-05-14T02:41:26.072Z,9.50
2023-05-14T02:42:26.037Z,6.00
2023-05-14T02:43:26.032Z,7.50
2023-05-14T02:44:26.007Z,7.20
2023-05-14T02:45:26.022Z,8.30
2023-05-14T02:46:26.000Z,8.10
2023-05-14T02:47:26.031Z,9.30
2023-05-14T02:48:25.967Z,7.50
2023-05-14T02:49:25.971Z,7.10
2023-05-14T02:50:26.225Z,8.40
2023-05-14T02:51:25.954Z,8.10
2023-05-14T02:52:25.932Z,7.20
2023-05-14T02:53:25.936Z,7.20
2023-05-14T02:54:25.909Z,7.50
2023-05-14T02:55:25.942Z,7.30
2023-05-14T02:56:25.895Z,7.30
2023-05-14T02:57:25.894Z,7.40
2023-05-14T02:58:28.218Z,7.10
2023-05-14T02:59:25.883Z,6.80
2023-05-14T03:00:26.098Z,7.70
2023-05-14T03:01:25.875Z,7.10
2023-05-14T03:02:25.957Z,8.90
2023-05-14T03:03:25.858Z,7.70
2023-05-14T03:04:25.796Z,7.30
2023-05-14T03:05:25.814Z,7.10
2023-05-14T03:06:25.797Z,7.30
2023-05-14T03:07:25.769Z,7.50
2023-05-14T03:08:25.777Z,5.70
2023-05-14T03:09:25.777Z,7.10
2023-05-14T03:10:25.961Z,7.10
2023-05-14T03:11:25.699Z,7.60
2023-05-14T03:12:25.684Z,8.50
2023-05-14T03:13:25.720Z,7.40
2023-05-14T03:14:25.707Z,8.10
2023-05-14T03:15:25.717Z,7.80
2023-05-14T03:16:25.660Z,6.90
2023-05-14T03:17:25.741Z,6.90
2023-05-14T03:18:25.701Z,6.70
2023-05-14T03:19:25.672Z,7.10
2023-05-14T03:20:25.824Z,6.70
2023-05-14T03:21:25.613Z,7.40
2023-05-14T03:22:25.577Z,5.20
2023-05-14T03:23:25.573Z,6.80
2023-05-14T03:24:25.533Z,6.70
2023-05-14T03:25:25.557Z,7.20
2023-05-14T03:26:25.514Z,5.80
2023-05-14T03:27:25.533Z,7.00
2023-05-14T03:28:25.509Z,9.70
2023-05-14T03:29:25.498Z,8.70
2023-05-14T03:30:25.792Z,7.30
2023-05-14T03:31:25.514Z,8.20
2023-05-14T03:32:25.476Z,5.20
2023-05-14T03:33:25.473Z,5.90
2023-05-14T03:34:25.443Z,6.10
2023-05-14T03:35:25.457Z,6.70
2023-05-14T03:36:25.407Z,6.60
2023-05-14T03:37:25.423Z,4.80
2023-05-14T03:38:25.389Z,7.20
2023-05-14T03:39:25.411Z,6.60
2023-05-14T03:40:25.613Z,6.60
2023-05-14T03:41:25.365Z,7.30
2023-05-14T03:42:25.343Z,8.90
2023-05-14T03:43:25.369Z,7.20
2023-05-14T03:44:25.332Z,7.40
2023-05-14T03:45:25.338Z,6.50
2023-05-14T03:46:25.294Z,8.00
2023-05-14T03:47:25.331Z,5.40
2023-05-14T03:48:25.405Z,6.20
2023-05-14T03:49:25.291Z,7.10
2023-05-14T03:50:25.659Z,6.50
2023-05-14T03:51:25.264Z,7.50
2023-05-14T03:52:25.232Z,7.00
2023-05-14T03:53:25.249Z,7.70
2023-05-14T03:54:25.220Z,7.20
2023-05-14T03:55:25.240Z,8.30
2023-05-14T03:56:25.190Z,6.20
2023-05-14T03:57:25.216Z,7.20
2023-05-14T03:58:25.170Z,8.30
2023-05-14T03:59:25.169Z,6.90
2023-05-14T04:00:25.544Z,8.80
2023-05-14T04:01:25.174Z,9.20
2023-05-14T04:02:25.209Z,6.80
2023-05-14T04:03:25.234Z,7.20
2023-05-14T04:04:25.179Z,9.60
2023-05-14T04:05:25.112Z,9.30
2023-05-14T04:06:25.098Z,8.70
2023-05-14T04:07:25.098Z,7.70
2023-05-14T04:08:25.066Z,8.40
2023-05-14T04:09:25.060Z,8.70
2023-05-14T04:10:25.223Z,7.40
2023-05-14T04:11:25.037Z,7.80
2023-05-14T04:12:25.033Z,10.40
2023-05-14T04:13:25.024Z,8.20
2023-05-14T04:14:25.034Z,11.40
2023-05-14T04:15:25.004Z,8.60
2023-05-14T04:16:25.021Z,7.60
2023-05-14T04:17:25.010Z,8.40
2023-05-14T04:18:25.060Z,7.40
2023-05-14T04:19:24.952Z,9.80
2023-05-14T04:20:25.177Z,9.80
2023-05-14T04:21:24.924Z,8.20
2023-05-14T04:22:24.988Z,6.10
2023-05-14T04:23:24.905Z,7.80
2023-05-14T04:24:24.911Z,7.70
2023-05-14T04:25:24.879Z,8.60
2023-05-14T04:26:24.903Z,7.90
2023-05-14T04:27:24.872Z,9.70
2023-05-14T04:28:24.894Z,7.00
2023-05-14T04:29:24.845Z,6.60
2023-05-14T04:30:25.080Z,7.40
2023-05-14T04:31:24.850Z,6.10
2023-05-14T04:32:24.881Z,6.70
2023-05-14T04:33:24.810Z,7.50
2023-05-14T04:34:24.807Z,7.00
2023-05-14T04:35:25.104Z,8.20
2023-05-14T04:36:24.786Z,8.00
2023-05-14T04:37:24.752Z,8.70
2023-05-14T04:38:24.777Z,7.80
2023-05-14T04:39:24.742Z,6.50
2023-05-14T04:40:24.983Z,6.20
2023-05-14T04:41:24.714Z,8.20
2023-05-14T04:42:24.731Z,10.70
2023-05-14T04:43:24.687Z,9.70
2023-05-14T04:44:24.721Z,10.10
2023-05-14T04:45:24.671Z,7.30
2023-05-14T04:46:24.742Z,8.70
2023-05-14T04:47:24.669Z,7.30
2023-05-14T04:48:24.665Z,11.80
2023-05-14T04:49:24.638Z,11.80
2023-05-14T04:50:24.913Z,8.50
2023-05-14T04:51:24.595Z,15.30
2023-05-14T04:52:24.630Z,12.80
2023-05-14T04:53:24.592Z,11.60
2023-05-14T04:54:24.616Z,11.40
2023-05-14T04:55:24.605Z,11.90
2023-05-14T04:56:24.563Z,15.00
2023-05-14T04:57:24.539Z,15.00
2023-05-14T04:58:24.569Z,13.90
2023-05-14T04:59:24.526Z,12.00
2023-05-14T05:00:24.924Z,12.30
2023-05-14T05:01:24.589Z,12.40
2023-05-14T05:02:24.566Z,9.50
2023-05-14T05:03:24.607Z,7.10
2023-05-14T05:04:24.485Z,8.40
2023-05-14T05:05:24.468Z,7.20
2023-05-14T05:06:24.459Z,6.60
2023-05-14T05:07:24.434Z,8.20
2023-05-14T05:08:24.458Z,8.10
2023-05-14T05:09:24.421Z,7.70
2023-05-14T05:10:24.773Z,7.20
2023-05-14T05:11:24.391Z,6.50
2023-05-14T05:12:24.446Z,6.90
2023-05-14T05:13:24.370Z,6.70
2023-05-14T05:14:24.381Z,9.90
2023-05-14T05:15:26.520Z,7.10
2023-05-14T05:16:24.395Z,6.90
2023-05-14T05:17:24.389Z,7.20
2023-05-14T05:18:24.368Z,8.90
2023-05-14T05:19:35.741Z,8.30
2023-05-14T05:20:24.512Z,6.80
2023-05-14T05:21:24.298Z,7.00
2023-05-14T05:22:24.312Z,7.50
2023-05-14T05:23:24.273Z,6.70
2023-05-14T05:24:24.278Z,6.90
2023-05-14T05:25:24.245Z,6.10
2023-05-14T05:26:24.264Z,6.80
2023-05-14T05:27:24.238Z,6.90
2023-05-14T05:28:24.244Z,8.50
2023-05-14T05:29:24.200Z,7.20
2023-05-14T05:30:24.495Z,6.60
2023-05-14T05:31:24.205Z,7.80
2023-05-14T05:32:24.230Z,6.40
2023-05-14T05:33:24.179Z,6.20
2023-05-14T05:34:24.168Z,8.20
2023-05-14T05:35:24.146Z,6.90
2023-05-14T05:36:24.180Z,6.50
2023-05-14T05:37:24.137Z,6.20
2023-05-14T05:38:24.158Z,7.30
2023-05-14T05:39:24.103Z,7.40
2023-05-14T05:40:24.371Z,6.80
2023-05-14T05:41:24.078Z,7.50
2023-05-14T05:42:24.089Z,7.00
2023-05-14T05:43:24.049Z,7.40
2023-05-14T05:44:24.068Z,9.60
2023-05-14T05:45:24.047Z,6.70
2023-05-14T05:46:24.065Z,6.70
2023-05-14T05:47:24.063Z,7.20
2023-05-14T05:48:24.011Z,6.10
2023-05-14T05:49:23.990Z,8.10
2023-05-14T05:50:24.161Z,6.10
2023-05-14T05:51:23.964Z,7.40
2023-05-14T05:52:24.000Z,6.10
2023-05-14T05:53:23.989Z,8.10
2023-05-14T05:54:24.068Z,6.60
2023-05-14T05:55:23.921Z,7.40
2023-05-14T05:56:23.937Z,6.50
2023-05-14T05:57:26.191Z,8.00
2023-05-14T05:58:23.912Z,7.00
2023-05-14T05:59:23.904Z,6.50
2023-05-14T06:00:24.334Z,5.50
2023-05-14T06:01:23.888Z,7.60
2023-05-14T06:02:23.890Z,7.10
2023-05-14T06:03:23.872Z,6.30
2023-05-14T06:04:23.857Z,7.10
2023-05-14T06:05:23.907Z,6.70
2023-05-14T06:06:23.877Z,6.40
2023-05-14T06:07:23.797Z,8.70
2023-05-14T06:08:23.813Z,8.00
2023-05-14T06:09:23.772Z,6.20
2023-05-14T06:10:24.063Z,8.40
2023-05-14T06:11:23.768Z,8.70
2023-05-14T06:12:23.761Z,7.50
2023-05-14T06:13:23.732Z,6.20
2023-05-14T06:14:23.747Z,6.90
2023-05-14T06:15:23.730Z,7.40
2023-05-14T06:16:23.748Z,8.60
2023-05-14T06:17:23.825Z,7.50
2023-05-14T06:18:23.695Z,7.90
2023-05-14T06:19:23.680Z,8.10
2023-05-14T06:20:23.864Z,8.50
2023-05-14T06:21:23.682Z,7.80
2023-05-14T06:22:23.650Z,8.00
2023-05-14T06:23:23.676Z,9.10
2023-05-14T06:24:23.635Z,8.20
2023-05-14T06:25:23.618Z,6.70
2023-05-14T06:26:23.618Z,6.00
2023-05-14T06:27:23.613Z,9.60
2023-05-14T06:28:23.613Z,7.40
2023-05-14T06:29:23.651Z,11.00
2023-05-14T06:30:23.907Z,7.50
2023-05-14T06:31:23.560Z,7.00
2023-05-14T06:32:23.702Z,7.10
2023-05-14T06:33:23.566Z,8.60
2023-05-14T06:34:23.553Z,7.40
2023-05-14T06:35:23.501Z,6.50
2023-05-14T06:36:23.558Z,7.00
2023-05-14T06:37:23.480Z,7.70
2023-05-14T06:38:23.496Z,7.10
2023-05-14T06:39:23.454Z,6.90
2023-05-14T06:40:23.682Z,7.00
2023-05-14T06:41:23.442Z,6.70
2023-05-14T06:42:23.460Z,7.60
2023-05-14T06:43:23.417Z,5.60
2023-05-14T06:44:23.413Z,5.20
2023-05-14T06:45:23.386Z,7.90
2023-05-14T06:46:23.463Z,9.60
2023-05-14T06:47:23.435Z,6.20
2023-05-14T06:48:23.469Z,8.10
2023-05-14T06:49:23.349Z,6.40
2023-05-14T06:50:23.624Z,6.00
2023-05-14T06:51:23.348Z,6.50
2023-05-14T06:52:23.383Z,6.70
2023-05-14T06:53:23.307Z,5.50
2023-05-14T06:54:23.322Z,7.40
2023-05-14T06:55:23.343Z,8.00
2023-05-14T06:56:23.298Z,8.60
2023-05-14T06:57:23.276Z,6.10
2023-05-14T06:58:23.284Z,6.30
2023-05-14T06:59:23.248Z,4.90
2023-05-14T07:00:23.482Z,6.30
2023-05-14T07:01:23.305Z,7.40
2023-05-14T07:02:23.253Z,7.50
2023-05-14T07:03:23.209Z,7.90
2023-05-14T07:04:23.322Z,6.40
2023-05-14T07:05:23.176Z,6.50
2023-05-14T07:06:23.204Z,6.00
2023-05-14T07:07:23.149Z,6.50
2023-05-14T07:08:23.171Z,6.90
2023-05-14T07:09:23.145Z,8.20
2023-05-14T07:10:23.327Z,6.80
2023-05-14T07:11:23.146Z,7.50
2023-05-14T07:12:23.139Z,9.40
2023-05-14T07:13:23.090Z,5.20
2023-05-14T07:14:23.112Z,6.20
2023-05-14T07:15:23.072Z,7.70
2023-05-14T07:16:23.083Z,6.10
2023-05-14T07:17:23.121Z,6.00
2023-05-14T07:18:23.069Z,6.60
2023-05-14T07:19:23.018Z,5.40
2023-05-14T07:20:23.296Z,5.30
2023-05-14T07:21:23.003Z,5.70
2023-05-14T07:22:23.021Z,7.70
2023-05-14T07:23:23.175Z,5.60
2023-05-14T07:24:23.026Z,6.70
2023-05-14T07:25:22.982Z,5.20
2023-05-14T07:26:22.979Z,5.40
2023-05-14T07:27:22.944Z,5.90
2023-05-14T07:28:22.957Z,6.70
2023-05-14T07:29:22.938Z,5.80
2023-05-14T07:30:23.146Z,6.20
2023-05-14T07:31:23.013Z,5.80
2023-05-14T07:32:22.904Z,6.70
2023-05-14T07:33:22.872Z,8.10
2023-05-14T07:34:22.952Z,7.40
2023-05-14T07:35:22.859Z,5.90
2023-05-14T07:36:22.877Z,6.60
2023-05-14T07:37:24.191Z,6.00
2023-05-14T07:38:22.851Z,7.00
2023-05-14T07:39:22.817Z,7.70
2023-05-14T07:40:23.086Z,8.40
2023-05-14T07:41:22.814Z,7.90
2023-05-14T07:42:35.291Z,5.30
2023-05-14T07:43:22.768Z,5.30
2023-05-14T07:44:22.773Z,7.50
2023-05-14T07:45:22.908Z,6.30
2023-05-14T07:46:22.753Z,5.50
2023-05-14T07:47:22.810Z,5.60
2023-05-14T07:48:22.805Z,7.20
2023-05-14T07:49:22.699Z,6.50
2023-05-14T07:50:22.879Z,6.30
2023-05-14T07:51:22.705Z,6.20
2023-05-14T07:52:22.686Z,4.90
2023-05-14T07:53:22.657Z,7.90
2023-05-14T07:54:22.705Z,6.30
2023-05-14T07:55:22.640Z,6.80
2023-05-14T07:56:22.706Z,6.90
2023-05-14T07:57:22.637Z,6.70
2023-05-14T07:58:22.631Z,6.50
2023-05-14T07:59:22.591Z,6.00
2023-05-14T08:00:22.855Z,4.90
2023-05-14T08:01:22.583Z,5.40
2023-05-14T08:02:22.687Z,6.60
2023-05-14T08:03:22.720Z,5.60
2023-05-14T08:04:22.598Z,6.10
2023-05-14T08:05:22.535Z,6.60
2023-05-14T08:06:22.543Z,7.70
2023-05-14T08:07:22.518Z,5.40
2023-05-14T08:08:22.523Z,7.50
2023-05-14T08:09:22.484Z,8.30
2023-05-14T08:10:22.937Z,6.30
2023-05-14T08:11:22.544Z,6.60
2023-05-14T08:12:22.484Z,7.90
2023-05-14T08:13:22.445Z,6.10
2023-05-14T08:14:22.458Z,7.20
2023-05-14T08:15:22.431Z,6.40
2023-05-14T08:16:22.482Z,8.00
2023-05-14T08:17:22.461Z,6.10
2023-05-14T08:18:22.428Z,4.90
2023-05-14T08:19:22.380Z,7.20
2023-05-14T08:20:22.637Z,5.30
2023-05-14T08:21:22.401Z,7.50
2023-05-14T08:22:22.366Z,7.10
2023-05-14T08:23:22.432Z,6.80
2023-05-14T08:24:22.331Z,5.60
2023-05-14T08:25:22.383Z,6.90
2023-05-14T08:26:22.300Z,7.60
2023-05-14T08:27:22.367Z,7.60
2023-05-14T08:28:22.282Z,5.50
2023-05-14T08:29:22.309Z,5.20
2023-05-14T08:30:22.495Z,5.80
2023-05-14T08:31:22.384Z,6.70
2023-05-14T08:32:24.179Z,6.00
2023-05-14T08:33:22.257Z,6.00
2023-05-14T08:34:22.221Z,8.00
2023-05-14T08:35:22.254Z,7.10
2023-05-14T08:36:22.206Z,5.40
2023-05-14T08:37:22.207Z,7.00
2023-05-14T08:38:22.189Z,5.70
2023-05-14T08:39:22.182Z,6.10
2023-05-14T08:40:22.379Z,6.00
2023-05-14T08:41:22.180Z,5.60
2023-05-14T08:42:22.138Z,6.50
2023-05-14T08:43:22.145Z,5.40
2023-05-14T08:44:22.121Z,6.60
2023-05-14T08:45:22.134Z,6.30
2023-05-14T08:46:22.103Z,6.10
2023-05-14T08:47:22.137Z,5.80
2023-05-14T08:48:22.146Z,6.20
2023-05-14T08:49:22.094Z,6.30
2023-05-14T08:50:23.254Z,7.40
2023-05-14T08:51:22.109Z,5.20
2023-05-14T08:52:22.028Z,6.00
2023-05-14T08:53:22.057Z,6.20
2023-05-14T08:54:22.023Z,6.60
2023-05-14T08:55:22.031Z,5.60
2023-05-14T08:56:21.988Z,8.20
2023-05-14T08:57:22.005Z,6.00
2023-05-14T08:58:21.968Z,5.20
2023-05-14T08:59:21.999Z,7.10
2023-05-14T09:00:22.176Z,5.50
2023-05-14T09:01:21.965Z,6.20
2023-05-14T09:02:21.964Z,5.70
2023-05-14T09:03:21.969Z,5.90
2023-05-14T09:04:21.921Z,8.10
2023-05-14T09:05:21.911Z,6.40
2023-05-14T09:06:21.886Z,7.50
2023-05-14T09:07:21.904Z,7.10
2023-05-14T09:08:21.867Z,6.50
2023-05-14T09:09:21.870Z,5.40
2023-05-14T09:10:21.941Z,6.80
2023-05-14T09:11:21.858Z,7.20
2023-05-14T09:12:21.848Z,7.50
2023-05-14T09:13:21.821Z,6.20
2023-05-14T09:14:21.802Z,5.90
2023-05-14T09:15:21.816Z,6.80
2023-05-14T09:16:21.782Z,7.10
2023-05-14T09:17:21.799Z,7.30
2023-05-14T09:18:21.770Z,6.40
2023-05-14T09:19:21.898Z,6.50
2023-05-14T09:20:21.910Z,5.10
2023-05-14T09:21:21.737Z,6.30
2023-05-14T09:22:21.713Z,6.30
2023-05-14T09:23:21.709Z,6.40
2023-05-14T09:24:21.698Z,6.00
2023-05-14T09:25:21.678Z,6.80
2023-05-14T09:26:21.688Z,5.50
2023-05-14T09:27:21.684Z,7.60
2023-05-14T09:28:21.641Z,6.30
2023-05-14T09:29:21.684Z,6.10
2023-05-14T09:30:21.719Z,5.40
2023-05-14T09:31:21.654Z,5.20
2023-05-14T09:32:21.598Z,6.20
2023-05-14T09:33:21.631Z,7.70
2023-05-14T09:34:21.579Z,7.70
2023-05-14T09:35:21.609Z,5.70
2023-05-14T09:36:21.552Z,5.10
2023-05-14T09:37:21.573Z,5.70
2023-05-14T09:38:21.544Z,6.50
2023-05-14T09:39:21.555Z,6.20
2023-05-14T09:40:21.829Z,7.00
2023-05-14T09:41:21.519Z,6.90
2023-05-14T09:42:21.493Z,5.70
2023-05-14T09:43:21.494Z,7.90
2023-05-14T09:44:21.501Z,6.90
2023-05-14T09:45:21.478Z,5.70
2023-05-14T09:46:21.460Z,7.40
2023-05-14T09:47:21.490Z,6.00
2023-05-14T09:48:21.451Z,8.20
2023-05-14T09:49:21.448Z,8.00
2023-05-14T09:50:21.636Z,5.60
2023-05-14T09:51:21.450Z,6.30
2023-05-14T09:52:21.401Z,6.60
2023-05-14T09:53:21.392Z,6.90
2023-05-14T09:54:21.366Z,5.60
2023-05-14T09:55:21.451Z,5.60
2023-05-14T09:56:21.339Z,5.70
2023-05-14T09:57:21.360Z,5.30
2023-05-14T09:58:21.333Z,5.30
2023-05-14T09:59:21.363Z,6.60
2023-05-14T10:00:21.572Z,6.10
2023-05-14T10:01:21.315Z,6.70
2023-05-14T10:02:21.352Z,5.90
2023-05-14T10:03:21.282Z,6.10
2023-05-14T10:04:21.298Z,5.90
2023-05-14T10:05:21.267Z,6.10
2023-05-14T10:06:21.245Z,6.00
2023-05-14T10:07:21.239Z,5.70
2023-05-14T10:08:21.209Z,4.80
2023-05-14T10:09:21.241Z,6.80
2023-05-14T10:10:21.378Z,7.30
2023-05-14T10:11:21.214Z,7.20
2023-05-14T10:12:21.180Z,6.00
2023-05-14T10:13:21.208Z,5.70
2023-05-14T10:14:21.153Z,6.90
2023-05-14T10:15:21.175Z,6.20
2023-05-14T10:16:21.181Z,5.90
2023-05-14T10:17:21.181Z,7.00
2023-05-14T10:18:21.122Z,5.20
2023-05-14T10:19:21.350Z,5.00
2023-05-14T10:20:21.118Z,6.30
2023-05-14T10:21:21.105Z,6.20
2023-05-14T10:22:21.066Z,5.70
2023-05-14T10:23:21.079Z,5.80
2023-05-14T10:24:21.074Z,5.70
2023-05-14T10:25:21.045Z,6.50
2023-05-14T10:26:23.202Z,5.40
2023-05-14T10:27:21.044Z,5.00
2023-05-14T10:28:21.039Z,6.30
2023-05-14T10:29:21.022Z,5.30
2023-05-14T10:30:20.977Z,7.30
2023-05-14T10:31:21.078Z,4.80
2023-05-14T10:32:20.956Z,6.10
2023-05-14T10:33:21.006Z,7.10
2023-05-14T10:34:20.944Z,6.70
2023-05-14T10:35:21.006Z,6.40
2023-05-14T10:36:20.910Z,5.10
2023-05-14T10:37:20.936Z,7.20
2023-05-14T10:38:20.909Z,8.60
2023-05-14T10:39:20.901Z,6.50
2023-05-14T10:40:20.900Z,6.80
2023-05-14T10:41:20.883Z,7.00
2023-05-14T10:42:20.849Z,6.80
2023-05-14T10:43:20.878Z,5.70
2023-05-14T10:44:20.829Z,5.70
2023-05-14T10:45:20.849Z,6.20
2023-05-14T10:46:20.807Z,5.70
2023-05-14T10:47:20.853Z,5.70
2023-05-14T10:48:20.860Z,5.60
2023-05-14T10:49:32.340Z,6.80
2023-05-14T10:50:20.784Z,6.80
2023-05-14T10:51:20.911Z,5.40
2023-05-14T10:52:20.764Z,5.80
2023-05-14T10:53:20.761Z,4.70
2023-05-14T10:54:20.713Z,7.60
2023-05-14T10:55:20.748Z,7.50
2023-05-14T10:56:20.701Z,6.40
2023-05-14T10:57:20.700Z,5.30
2023-05-14T10:58:20.678Z,7.00
2023-05-14T10:59:20.694Z,5.60
2023-05-14T11:00:20.677Z,6.10
2023-05-14T11:01:20.684Z,4.20
2023-05-14T11:02:20.658Z,6.00
2023-05-14T11:03:20.713Z,5.70
2023-05-14T11:04:20.657Z,6.90
2023-05-14T11:05:20.636Z,6.20
2023-05-14T11:06:20.611Z,6.00
2023-05-14T11:07:20.600Z,5.00
2023-05-14T11:08:21.521Z,6.50
2023-05-14T11:09:20.596Z,6.10
2023-05-14T11:10:20.571Z,5.10
2023-05-14T11:11:20.594Z,5.50
2023-05-14T11:12:20.547Z,6.50
2023-05-14T11:13:20.549Z,5.60
2023-05-14T11:14:20.512Z,5.20
2023-05-14T11:15:20.534Z,5.20
2023-05-14T11:16:23.328Z,6.60
2023-05-14T11:17:20.529Z,7.10
2023-05-14T11:18:20.464Z,5.80
2023-05-14T11:19:20.497Z,5.80
2023-05-14T11:20:20.447Z,4.00
2023-05-14T11:21:20.522Z,5.80
2023-05-14T11:22:20.424Z,4.00
2023-05-14T11:23:20.432Z,5.30
2023-05-14T11:24:20.400Z,5.30
2023-05-14T11:25:20.422Z,4.90
2023-05-14T11:26:21.657Z,5.90
2023-05-14T11:27:20.398Z,5.40
2023-05-14T11:28:20.373Z,5.40
2023-05-14T11:29:20.366Z,5.40
2023-05-14T11:30:20.362Z,5.90
2023-05-14T11:31:20.385Z,4.70
2023-05-14T11:32:20.424Z,5.90
2023-05-14T11:33:20.409Z,7.40
2023-05-14T11:34:20.329Z,6.10
2023-05-14T11:35:20.320Z,5.10
2023-05-14T11:36:20.284Z,5.70
2023-05-14T11:37:20.305Z,6.60
2023-05-14T11:38:20.265Z,5.10
2023-05-14T11:39:20.272Z,5.20
2023-05-14T11:40:20.229Z,4.60
2023-05-14T11:41:20.240Z,5.40
2023-05-14T11:42:20.226Z,5.80
2023-05-14T11:43:20.237Z,6.30
2023-05-14T11:44:20.200Z,6.60
2023-05-14T11:45:20.210Z,6.00
2023-05-14T11:46:20.245Z,4.60
2023-05-14T11:47:20.191Z,5.10
2023-05-14T11:48:20.167Z,5.00
2023-05-14T11:49:20.176Z,5.20
2023-05-14T11:50:20.136Z,6.00
2023-05-14T11:51:20.132Z,5.60
2023-05-14T11:52:20.110Z,4.60
2023-05-14T11:53:20.129Z,5.80
2023-05-14T11:54:20.095Z,5.00
2023-05-14T11:55:20.105Z,5.30
2023-05-14T11:56:20.075Z,5.60
2023-05-14T11:57:20.084Z,5.20
2023-05-14T11:58:20.042Z,5.20
2023-05-14T11:59:20.060Z,5.50
2023-05-14T12:00:20.018Z,4.90
2023-05-14T12:01:20.033Z,6.70
2023-05-14T12:02:20.033Z,4.80
2023-05-14T12:03:20.206Z,4.20
2023-05-14T12:04:20.018Z,5.30
2023-05-14T12:05:20.016Z,4.30
2023-05-14T12:06:19.946Z,5.20
2023-05-14T12:07:19.972Z,5.80
2023-05-14T12:08:19.925Z,4.10
2023-05-14T12:09:19.985Z,5.10
2023-05-14T12:10:19.915Z,4.70
2023-05-14T12:11:19.925Z,5.10
2023-05-14T12:12:19.884Z,4.60
2023-05-14T12:13:19.908Z,4.40
2023-05-14T12:14:19.886Z,4.70
2023-05-14T12:15:19.894Z,5.10
2023-05-14T12:16:19.866Z,4.90
2023-05-14T12:17:19.864Z,4.50
2023-05-14T12:18:24.517Z,5.10
2023-05-14T12:19:19.872Z,4.50
2023-05-14T12:20:19.804Z,4.90
2023-05-14T12:21:19.836Z,4.80
2023-05-14T12:22:19.782Z,5.30
2023-05-14T12:23:19.808Z,4.70
2023-05-14T12:24:19.760Z,3.90
2023-05-14T12:25:19.779Z,4.70
2023-05-14T12:26:19.789Z,5.60
2023-05-14T12:27:19.748Z,5.60
2023-05-14T12:28:19.717Z,5.70
2023-05-14T12:29:19.734Z,5.20
2023-05-14T12:30:21.448Z,5.10
2023-05-14T12:31:19.739Z,4.30
2023-05-14T12:32:19.675Z,4.90
2023-05-14T12:33:19.695Z,5.60
2023-05-14T12:34:19.653Z,4.90
2023-05-14T12:35:19.653Z,5.50
2023-05-14T12:36:21.658Z,4.50
2023-05-14T12:37:19.667Z,6.10
2023-05-14T12:38:19.644Z,5.50
2023-05-14T12:39:19.604Z,4.90
2023-05-14T12:40:19.626Z,4.80
2023-05-14T12:41:19.580Z,4.70
2023-05-14T12:42:19.596Z,4.90
2023-05-14T12:43:19.575Z,7.00
2023-05-14T12:44:19.560Z,4.80
2023-05-14T12:45:19.531Z,4.50
2023-05-14T12:46:19.542Z,4.30
2023-05-14T12:47:19.710Z,5.70
2023-05-14T12:48:19.536Z,4.90
2023-05-14T12:49:19.502Z,5.20
2023-05-14T12:50:19.542Z,5.00
2023-05-14T12:51:19.470Z,6.00
2023-05-14T12:52:29.405Z,5.50
2023-05-14T12:53:19.455Z,4.80
2023-05-14T12:54:19.474Z,4.20
2023-05-14T12:55:19.432Z,4.70
2023-05-14T12:56:19.441Z,4.70
2023-05-14T12:57:19.419Z,4.70
2023-05-14T12:58:19.408Z,4.70
2023-05-14T12:59:19.409Z,4.50
2023-05-14T13:00:19.430Z,5.00
2023-05-14T13:01:19.394Z,4.30
2023-05-14T13:02:19.373Z,5.20
2023-05-14T13:03:19.399Z,4.50
2023-05-14T13:04:19.372Z,4.30
2023-05-14T13:05:19.341Z,5.20
2023-05-14T13:06:19.356Z,4.90
2023-05-14T13:07:19.295Z,4.40
2023-05-14T13:08:19.315Z,5.30
2023-05-14T13:09:19.285Z,5.20
2023-05-14T13:10:19.291Z,4.00
2023-05-14T13:11:19.285Z,4.60
2023-05-14T13:12:19.278Z,5.40
2023-05-14T13:13:19.236Z,4.80
2023-05-14T13:14:20.228Z,4.30
2023-05-14T13:15:19.227Z,3.80
2023-05-14T13:16:19.245Z,5.00
2023-05-14T13:17:19.211Z,4.40